PUA1391 SUMU-SABE
Flight info
| Callsign | PUA1391 |
|---|---|
| Flight time | 0h 32m |
| Altitude | 14000 |
| Route | DAGUS DCT UGIMI |
| Aircraft | CRJ9/M-SDFGIRWY/S |
Departure
| Time | 2026-04-22 18:25 |
|---|---|
| Airport | Carrasco General Cesáreo L. Berisso International Airport (SUMU) |
Arrival
| Time | 2026-04-22 18:57 |
|---|---|
| Airport | Aeroparque Jorge Newbery (SABE) |
| Time | Latitude | Longitude | Altitude | Speed | Heading |
|---|---|---|---|---|---|
| 2026-04-22 17:02 | -34.83687 | -56.01882 | 72 ft | 0 kts | 143° |
| 2026-04-22 18:11 | -34.83677 | -56.01890 | 65 ft | 4 kts | 146° |
| 2026-04-22 18:12 | -34.83654 | -56.01907 | 67 ft | 4 kts | 150° |
| 2026-04-22 18:12 | -34.83631 | -56.01923 | 65 ft | 4 kts | 149° |
| 2026-04-22 18:12 | -34.83611 | -56.01943 | 72 ft | 4 kts | 124° |
| 2026-04-22 18:12 | -34.83609 | -56.01957 | 71 ft | 1 kts | 53° |
| 2026-04-22 18:13 | -34.83609 | -56.01958 | 71 ft | 1 kts | 53° |
| 2026-04-22 18:17 | -34.83607 | -56.01956 | 71 ft | 2 kts | 53° |
| 2026-04-22 18:17 | -34.83591 | -56.01928 | 72 ft | 7 kts | 54° |
| 2026-04-22 18:18 | -34.83554 | -56.01867 | 72 ft | 11 kts | 53° |
| 2026-04-22 18:18 | -34.83505 | -56.01787 | 72 ft | 12 kts | 53° |
| 2026-04-22 18:18 | -34.83437 | -56.01774 | 72 ft | 11 kts | 327° |
| 2026-04-22 18:18 | -34.83388 | -56.01817 | 74 ft | 7 kts | 323° |
| 2026-04-22 18:19 | -34.83354 | -56.01847 | 79 ft | 6 kts | 328° |
| 2026-04-22 18:19 | -34.83315 | -56.01861 | 83 ft | 7 kts | 11° |
| 2026-04-22 18:19 | -34.83269 | -56.01814 | 85 ft | 11 kts | 53° |
| 2026-04-22 18:19 | -34.83212 | -56.01717 | 87 ft | 17 kts | 54° |
| 2026-04-22 18:20 | -34.83146 | -56.01606 | 95 ft | 14 kts | 54° |
| 2026-04-22 18:20 | -34.83096 | -56.01522 | 98 ft | 11 kts | 54° |
| 2026-04-22 18:20 | -34.83054 | -56.01456 | 101 ft | 9 kts | 52° |
| 2026-04-22 18:20 | -34.83011 | -56.01388 | 102 ft | 11 kts | 53° |
| 2026-04-22 18:21 | -34.82962 | -56.01308 | 106 ft | 12 kts | 53° |
| 2026-04-22 18:21 | -34.82909 | -56.01222 | 109 ft | 14 kts | 53° |
| 2026-04-22 18:21 | -34.82834 | -56.01142 | 109 ft | 13 kts | 11° |
| 2026-04-22 18:21 | -34.82757 | -56.01146 | 108 ft | 11 kts | 345° |
| 2026-04-22 18:22 | -34.82707 | -56.01203 | 108 ft | 6 kts | 276° |
| 2026-04-22 18:22 | -34.82718 | -56.01241 | 107 ft | 0 kts | 236° |
| 2026-04-22 18:24 | -34.82727 | -56.01255 | 108 ft | 15 kts | 235° |
| 2026-04-22 18:24 | -34.83373 | -56.02316 | 86 ft | 133 kts | 234° |
| 2026-04-22 18:25 | -34.83966 | -56.03339 | 327 ft | 152 kts | 235° |
| 2026-04-22 18:25 | -34.84634 | -56.04301 | 1119 ft | 146 kts | 219° |
| 2026-04-22 18:25 | -34.85638 | -56.04524 | 1662 ft | 157 kts | 171° |
| 2026-04-22 18:26 | -34.87750 | -56.04446 | 2864 ft | 150 kts | 192° |
| 2026-04-22 18:26 | -34.88773 | -56.04675 | 3412 ft | 148 kts | 198° |
| 2026-04-22 18:26 | -34.89756 | -56.05033 | 3948 ft | 147 kts | 202° |
| 2026-04-22 18:26 | -34.90715 | -56.05466 | 4469 ft | 147 kts | 205° |
| 2026-04-22 18:27 | -34.91656 | -56.05964 | 4958 ft | 148 kts | 205° |
| 2026-04-22 18:27 | -34.92459 | -56.06727 | 5307 ft | 155 kts | 246° |
| 2026-04-22 18:27 | -34.92549 | -56.08062 | 5839 ft | 166 kts | 264° |
| 2026-04-22 18:27 | -34.92643 | -56.09539 | 6351 ft | 183 kts | 261° |
| 2026-04-22 18:28 | -34.92787 | -56.11137 | 6994 ft | 193 kts | 261° |
| 2026-04-22 18:28 | -34.92936 | -56.12759 | 7881 ft | 192 kts | 261° |
| 2026-04-22 18:28 | -34.93086 | -56.14390 | 8737 ft | 194 kts | 261° |
| 2026-04-22 18:28 | -34.93230 | -56.16005 | 9586 ft | 195 kts | 261° |
| 2026-04-22 18:29 | -34.93380 | -56.17678 | 10240 ft | 207 kts | 261° |
| 2026-04-22 18:29 | -34.93553 | -56.19516 | 10625 ft | 228 kts | 262° |
| 2026-04-22 18:29 | -34.93720 | -56.21516 | 11115 ft | 245 kts | 263° |
| 2026-04-22 18:29 | -34.93876 | -56.23640 | 11664 ft | 259 kts | 264° |
| 2026-04-22 18:30 | -34.94038 | -56.25845 | 12433 ft | 262 kts | 264° |
| 2026-04-22 18:30 | -34.94366 | -56.30372 | 13743 ft | 282 kts | 266° |
| 2026-04-22 18:30 | -34.94545 | -56.32850 | 13953 ft | 306 kts | 266° |
| 2026-04-22 18:31 | -34.94735 | -56.35539 | 14050 ft | 331 kts | 266° |
| 2026-04-22 18:31 | -34.94936 | -56.38442 | 14097 ft | 356 kts | 266° |
| 2026-04-22 18:31 | -34.95155 | -56.41557 | 14118 ft | 379 kts | 266° |
| 2026-04-22 18:31 | -34.95374 | -56.44679 | 14115 ft | 364 kts | 266° |
| 2026-04-22 18:32 | -34.95582 | -56.47724 | 14103 ft | 356 kts | 266° |
| 2026-04-22 18:32 | -34.95788 | -56.50711 | 14090 ft | 352 kts | 266° |
| 2026-04-22 18:32 | -34.95992 | -56.53639 | 14083 ft | 350 kts | 266° |
| 2026-04-22 18:32 | -34.96191 | -56.56580 | 14077 ft | 347 kts | 266° |
| 2026-04-22 18:33 | -34.96392 | -56.59511 | 14080 ft | 345 kts | 266° |
| 2026-04-22 18:33 | -34.96593 | -56.62418 | 14080 ft | 343 kts | 266° |
| 2026-04-22 18:33 | -34.96787 | -56.65314 | 14081 ft | 342 kts | 266° |
| 2026-04-22 18:33 | -34.96985 | -56.68195 | 14082 ft | 340 kts | 266° |
| 2026-04-22 18:34 | -34.97177 | -56.71070 | 14083 ft | 339 kts | 266° |
| 2026-04-22 18:34 | -34.97369 | -56.73927 | 14092 ft | 338 kts | 266° |
| 2026-04-22 18:34 | -34.97558 | -56.76781 | 14092 ft | 337 kts | 266° |
| 2026-04-22 18:34 | -34.97748 | -56.79625 | 14091 ft | 336 kts | 266° |
| 2026-04-22 18:35 | -34.97936 | -56.82466 | 14088 ft | 336 kts | 266° |
| 2026-04-22 18:35 | -34.98121 | -56.85296 | 14096 ft | 335 kts | 266° |
| 2026-04-22 18:35 | -34.98306 | -56.88130 | 14090 ft | 335 kts | 266° |
| 2026-04-22 18:35 | -34.98490 | -56.90956 | 14091 ft | 334 kts | 266° |
| 2026-04-22 18:36 | -34.98672 | -56.93775 | 14090 ft | 334 kts | 266° |
| 2026-04-22 18:36 | -34.98853 | -56.96596 | 14086 ft | 333 kts | 266° |
| 2026-04-22 18:36 | -34.99033 | -56.99411 | 14091 ft | 333 kts | 266° |
| 2026-04-22 18:36 | -34.99212 | -57.02221 | 14091 ft | 332 kts | 266° |
| 2026-04-22 18:37 | -34.99390 | -57.05031 | 14091 ft | 332 kts | 266° |
| 2026-04-22 18:37 | -34.99567 | -57.07833 | 14091 ft | 332 kts | 266° |
| 2026-04-22 18:37 | -34.99683 | -57.09689 | 14091 ft | 331 kts | 266° |
| 2026-04-22 18:37 | -34.99912 | -57.13406 | 14095 ft | 331 kts | 267° |
| 2026-04-22 18:38 | -35.00068 | -57.16244 | 14086 ft | 330 kts | 270° |
| 2026-04-22 18:38 | -34.99685 | -57.18991 | 14079 ft | 330 kts | 286° |
| 2026-04-22 18:38 | -34.98902 | -57.21618 | 14089 ft | 330 kts | 289° |
| 2026-04-22 18:39 | -34.97210 | -57.26795 | 14094 ft | 330 kts | 290° |
| 2026-04-22 18:39 | -34.96373 | -57.29442 | 14094 ft | 330 kts | 289° |
| 2026-04-22 18:39 | -34.95596 | -57.32039 | 14094 ft | 330 kts | 288° |
| 2026-04-22 18:39 | -34.94813 | -57.34668 | 14093 ft | 330 kts | 288° |
| 2026-04-22 18:40 | -34.94029 | -57.37300 | 14092 ft | 330 kts | 288° |
| 2026-04-22 18:40 | -34.93247 | -57.39936 | 14100 ft | 330 kts | 288° |
| 2026-04-22 18:40 | -34.92458 | -57.42568 | 14098 ft | 330 kts | 288° |
| 2026-04-22 18:40 | -34.91671 | -57.45198 | 14098 ft | 330 kts | 289° |
| 2026-04-22 18:41 | -34.90885 | -57.47835 | 14098 ft | 330 kts | 288° |
| 2026-04-22 18:41 | -34.90096 | -57.50468 | 14091 ft | 330 kts | 288° |
| 2026-04-22 18:41 | -34.89307 | -57.53094 | 14088 ft | 330 kts | 289° |
| 2026-04-22 18:41 | -34.88522 | -57.55728 | 14094 ft | 330 kts | 289° |
| 2026-04-22 18:42 | -34.87742 | -57.58316 | 14095 ft | 330 kts | 289° |
| 2026-04-22 18:42 | -34.86953 | -57.60940 | 14096 ft | 330 kts | 289° |
| 2026-04-22 18:42 | -34.86161 | -57.63568 | 13932 ft | 333 kts | 289° |
| 2026-04-22 18:42 | -34.85326 | -57.66143 | 13469 ft | 323 kts | 295° |
| 2026-04-22 18:43 | -34.83879 | -57.68206 | 13010 ft | 323 kts | 317° |
| 2026-04-22 18:43 | -34.82023 | -57.69723 | 12569 ft | 319 kts | 322° |
| 2026-04-22 18:43 | -34.80114 | -57.71129 | 12132 ft | 315 kts | 323° |
| 2026-04-22 18:43 | -34.78228 | -57.72449 | 11718 ft | 311 kts | 324° |
| 2026-04-22 18:44 | -34.76354 | -57.73724 | 11319 ft | 307 kts | 324° |
| 2026-04-22 18:44 | -34.74488 | -57.74970 | 10931 ft | 304 kts | 324° |
| 2026-04-22 18:44 | -34.72638 | -57.76204 | 10538 ft | 302 kts | 325° |
| 2026-04-22 18:44 | -34.70802 | -57.77430 | 10176 ft | 300 kts | 325° |
| 2026-04-22 18:45 | -34.68977 | -57.78647 | 9813 ft | 298 kts | 325° |
| 2026-04-22 18:45 | -34.67164 | -57.79856 | 9437 ft | 296 kts | 325° |
| 2026-04-22 18:45 | -34.65366 | -57.81057 | 9079 ft | 294 kts | 325° |
| 2026-04-22 18:45 | -34.63587 | -57.82250 | 8739 ft | 291 kts | 325° |
| 2026-04-22 18:46 | -34.62415 | -57.83036 | 8523 ft | 289 kts | 325° |
| 2026-04-22 18:46 | -34.60669 | -57.84210 | 8213 ft | 285 kts | 325° |
| 2026-04-22 18:46 | -34.58961 | -57.85394 | 7923 ft | 279 kts | 319° |
| 2026-04-22 18:46 | -34.57769 | -57.87099 | 7625 ft | 258 kts | 288° |
| 2026-04-22 18:47 | -34.57047 | -57.89064 | 7390 ft | 255 kts | 292° |
| 2026-04-22 18:47 | -34.56187 | -57.90925 | 7129 ft | 247 kts | 284° |
| 2026-04-22 18:47 | -34.56163 | -57.92901 | 6894 ft | 232 kts | 245° |
| 2026-04-22 18:47 | -34.57178 | -57.94303 | 6701 ft | 223 kts | 207° |
| 2026-04-22 18:48 | -34.58630 | -57.95106 | 6543 ft | 229 kts | 208° |
| 2026-04-22 18:48 | -34.59953 | -57.96106 | 6340 ft | 225 kts | 217° |
| 2026-04-22 18:48 | -34.61108 | -57.97364 | 6122 ft | 222 kts | 227° |
| 2026-04-22 18:48 | -34.62058 | -57.98828 | 5902 ft | 220 kts | 234° |
| 2026-04-22 18:49 | -34.62878 | -58.00385 | 5671 ft | 218 kts | 237° |
| 2026-04-22 18:49 | -34.63656 | -58.01954 | 5462 ft | 216 kts | 237° |
| 2026-04-22 18:49 | -34.64426 | -58.03507 | 5241 ft | 212 kts | 237° |
| 2026-04-22 18:49 | -34.65188 | -58.05021 | 5028 ft | 208 kts | 237° |
| 2026-04-22 18:50 | -34.65945 | -58.06498 | 4899 ft | 200 kts | 237° |
| 2026-04-22 18:50 | -34.66677 | -58.07927 | 4914 ft | 203 kts | 236° |
| 2026-04-22 18:50 | -34.67407 | -58.09348 | 4910 ft | 196 kts | 236° |
| 2026-04-22 18:50 | -34.68132 | -58.10756 | 4887 ft | 197 kts | 236° |
| 2026-04-22 18:51 | -34.68860 | -58.12168 | 4841 ft | 191 kts | 236° |
| 2026-04-22 18:51 | -34.69541 | -58.13481 | 4621 ft | 179 kts | 237° |
| 2026-04-22 18:51 | -34.69960 | -58.14862 | 4342 ft | 180 kts | 272° |
| 2026-04-22 18:51 | -34.69571 | -58.16375 | 4170 ft | 194 kts | 289° |
| 2026-04-22 18:52 | -34.69027 | -58.17881 | 3963 ft | 196 kts | 293° |
| 2026-04-22 18:52 | -34.68368 | -58.19339 | 3748 ft | 198 kts | 298° |
| 2026-04-22 18:52 | -34.67606 | -58.20751 | 3528 ft | 201 kts | 301° |
| 2026-04-22 18:52 | -34.66810 | -58.22138 | 3295 ft | 199 kts | 301° |
| 2026-04-22 18:53 | -34.66025 | -58.23509 | 3036 ft | 196 kts | 302° |
| 2026-04-22 18:53 | -34.65258 | -58.24857 | 2777 ft | 193 kts | 302° |
| 2026-04-22 18:53 | -34.64490 | -58.26187 | 2537 ft | 191 kts | 302° |
| 2026-04-22 18:53 | -34.63737 | -58.27511 | 2314 ft | 190 kts | 301° |
| 2026-04-22 18:54 | -34.62999 | -58.28832 | 2074 ft | 188 kts | 301° |
| 2026-04-22 18:54 | -34.62269 | -58.30140 | 1834 ft | 186 kts | 301° |
| 2026-04-22 18:54 | -34.61554 | -58.31438 | 1708 ft | 181 kts | 301° |
| 2026-04-22 18:54 | -34.60844 | -58.32697 | 1507 ft | 182 kts | 300° |
| 2026-04-22 18:55 | -34.60137 | -58.33976 | 1278 ft | 182 kts | 301° |
| 2026-04-22 18:55 | -34.59450 | -58.35227 | 1069 ft | 173 kts | 301° |
| 2026-04-22 18:55 | -34.58806 | -58.36409 | 776 ft | 167 kts | 300° |
| 2026-04-22 18:55 | -34.58199 | -58.37518 | 824 ft | 144 kts | 300° |
| 2026-04-22 18:56 | -34.57650 | -58.38461 | 468 ft | 131 kts | 302° |
| 2026-04-22 18:56 | -34.57148 | -58.39373 | 266 ft | 129 kts | 301° |
| 2026-04-22 18:56 | -34.56654 | -58.40256 | 99 ft | 124 kts | 302° |
| 2026-04-22 18:56 | -34.56199 | -58.41091 | 27 ft | 106 kts | 301° |
| 2026-04-22 18:57 | -34.55859 | -58.41696 | 22 ft | 63 kts | 305° |
| 2026-04-22 18:57 | -34.55745 | -58.41892 | 22 ft | 8 kts | 308° |
| 2026-04-22 18:57 | -34.55711 | -58.41913 | 23 ft | 4 kts | 4° |
| 2026-04-22 18:57 | -34.55690 | -58.41905 | 24 ft | 4 kts | 34° |
| 2026-04-22 18:58 | -34.55680 | -58.41867 | 24 ft | 5 kts | 99° |
| 2026-04-22 18:58 | -34.55697 | -58.41825 | 25 ft | 6 kts | 124° |
| 2026-04-22 18:58 | -34.55723 | -58.41777 | 26 ft | 8 kts | 123° |
| 2026-04-22 18:58 | -34.55750 | -58.41719 | 25 ft | 8 kts | 116° |
| 2026-04-22 18:59 | -34.55770 | -58.41668 | 24 ft | 7 kts | 116° |
| 2026-04-22 18:59 | -34.55792 | -58.41612 | 26 ft | 8 kts | 116° |
| 2026-04-22 18:59 | -34.55818 | -58.41549 | 24 ft | 9 kts | 116° |
| 2026-04-22 18:59 | -34.55848 | -58.41477 | 24 ft | 10 kts | 117° |
| 2026-04-22 19:00 | -34.55881 | -58.41401 | 26 ft | 9 kts | 118° |
| 2026-04-22 19:00 | -34.55899 | -58.41360 | 24 ft | 4 kts | 118° |
| 2026-04-22 19:00 | -34.55904 | -58.41323 | 24 ft | 4 kts | 70° |
| 2026-04-22 19:00 | -34.55882 | -58.41295 | 25 ft | 5 kts | 32° |
| 2026-04-22 19:01 | -34.55846 | -58.41288 | 24 ft | 5 kts | 338° |
| 2026-04-22 19:01 | -34.55817 | -58.41323 | 26 ft | 6 kts | 306° |
| 2026-04-22 19:01 | -34.55789 | -58.41373 | 26 ft | 8 kts | 303° |
| 2026-04-22 19:01 | -34.55761 | -58.41426 | 26 ft | 6 kts | 303° |
| 2026-04-22 19:02 | -34.55751 | -58.41451 | 24 ft | 2 kts | 271° |
| 2026-04-22 19:02 | -34.55754 | -58.41463 | 24 ft | 1 kts | 233° |
| 2026-04-22 19:02 | -34.55763 | -58.41472 | 25 ft | 2 kts | 207° |
| 2026-04-22 19:02 | -34.55776 | -58.41480 | 24 ft | 2 kts | 211° |
| 2026-04-22 19:03 | -34.55784 | -58.41486 | 24 ft | 1 kts | 210° |